Time;durP1;ratioP1;P1;durP2;ratioP2;P2;SDS_P1;SDS_P2;PMS_P1;PMS_P2;Temp;Humidity;BMP_temperature;BMP_pressure;BME280_temperature;BME280_humidity;BME280_pressure;Samples;Min_cycle;Max_cycle;Signal;HPM_P1;HPM_P2
2022/06/26 00:00:40;;;;;;;33.83;29.03;;;;;;;;;;5305263;27;20028;-84
2022/06/26 00:03:12;;;;;;;34.80;29.13;;;;;;;;;;5305127;27;20024;-84
2022/06/26 00:05:43;;;;;;;35.65;29.48;;;;;;;;;;5294222;27;20028;-83
2022/06/26 00:08:14;;;;;;;22.47;20.10;;;;;;;;;;5313870;27;20029;-84
2022/06/26 00:10:46;;;;;;;25.40;22.80;;;;;;;;;;5311217;27;20603;-83
2022/06/26 00:13:17;;;;;;;28.80;25.73;;;;;;;;;;5296636;27;20226;-83
2022/06/26 00:15:49;;;;;;;30.85;27.38;;;;;;;;;;5309145;27;20028;-83
2022/06/26 00:18:20;;;;;;;33.33;26.83;;;;;;;;;;5289779;27;20480;-83
2022/06/26 00:20:51;;;;;;;29.13;23.73;;;;;;;;;;5310191;27;20032;-84
2022/06/26 00:23:22;;;;;;;26.33;23.63;;;;;;;;;;5309803;27;20351;-83
2022/06/26 00:25:54;;;;;;;27.87;24.87;;;;;;;;;;5290495;27;20048;-84
2022/06/26 00:28:25;;;;;;;28.07;24.90;;;;;;;;;;5314167;27;20286;-83
2022/06/26 00:30:56;;;;;;;26.35;23.40;;;;;;;;;;5310967;27;20333;-83
2022/06/26 00:33:27;;;;;;;26.13;21.00;;;;;;;;;;5289057;27;20023;-83
2022/06/26 00:36:02;;;;;;;25.35;22.65;;;;;;;;;;5314099;27;20571;-84
2022/06/26 00:38:33;;;;;;;26.88;21.92;;;;;;;;;;5314095;27;20028;-83
2022/06/26 00:41:05;;;;;;;27.27;23.77;;;;;;;;;;5291991;27;20444;-84
2022/06/26 00:43:37;;;;;;;30.85;24.48;;;;;;;;;;5315391;27;20028;-84
2022/06/26 00:46:08;;;;;;;28.73;25.63;;;;;;;;;;5316370;27;20512;-83
2022/06/26 00:48:39;;;;;;;35.07;28.27;;;;;;;;;;5314204;27;20440;-83
2022/06/26 00:51:11;;;;;;;37.35;29.98;;;;;;;;;;5310801;27;20843;-83
2022/06/26 00:53:42;;;;;;;41.08;31.42;;;;;;;;;;5292642;27;20036;-83
2022/06/26 00:56:13;;;;;;;45.05;32.72;;;;;;;;;;5318121;27;20041;-83
2022/06/26 00:58:45;;;;;;;40.50;31.88;;;;;;;;;;5314507;27;20036;-83
2022/06/26 01:01:16;;;;;;;38.47;31.95;;;;;;;;;;5287065;27;20074;-84
2022/06/26 01:03:47;;;;;;;43.27;33.33;;;;;;;;;;5306862;27;20028;-83
2022/06/26 01:06:19;;;;;;;41.03;33.20;;;;;;;;;;5297901;27;20038;-84
2022/06/26 01:08:50;;;;;;;45.88;32.55;;;;;;;;;;5321579;27;20028;-83
2022/06/26 01:11:21;;;;;;;43.20;32.43;;;;;;;;;;5293958;27;20052;-83
2022/06/26 01:13:54;;;;;;;48.85;33.42;;;;;;;;;;5289708;27;20263;-83
2022/06/26 01:16:25;;;;;;;44.58;34.53;;;;;;;;;;5310960;27;20468;-84
2022/06/26 01:18:58;;;;;;;43.38;33.58;;;;;;;;;;5313021;27;20060;-83
2022/06/26 01:21:30;;;;;;;37.97;29.85;;;;;;;;;;5306574;27;20454;-83
2022/06/26 01:24:01;;;;;;;47.28;35.30;;;;;;;;;;5299123;27;20139;-83
2022/06/26 01:26:33;;;;;;;46.10;32.05;;;;;;;;;;5297030;27;20028;-83
2022/06/26 01:29:05;;;;;;;48.38;35.88;;;;;;;;;;5316288;27;20548;-83
2022/06/26 01:31:36;;;;;;;47.47;35.25;;;;;;;;;;5327800;27;20039;-83
2022/06/26 01:34:10;;;;;;;46.93;36.47;;;;;;;;;;5319647;27;20020;-83
2022/06/26 01:36:42;;;;;;;46.63;34.70;;;;;;;;;;5308784;27;20477;-83
2022/06/26 01:39:13;;;;;;;48.80;36.13;;;;;;;;;;5316893;27;20020;-83
2022/06/26 01:41:44;;;;;;;50.70;38.53;;;;;;;;;;5329157;27;20034;-83
2022/06/26 01:44:15;;;;;;;46.37;36.17;;;;;;;;;;5297503;27;20044;-83
2022/06/26 01:46:47;;;;;;;54.28;37.92;;;;;;;;;;5323321;27;20411;-83
2022/06/26 01:49:18;;;;;;;48.13;38.15;;;;;;;;;;5325783;27;20020;-83
2022/06/26 01:51:49;;;;;;;48.67;37.25;;;;;;;;;;5338838;27;20044;-82
2022/06/26 01:54:20;;;;;;;48.37;39.07;;;;;;;;;;5334300;27;20183;-82
2022/06/26 01:56:52;;;;;;;45.47;34.78;;;;;;;;;;5344579;27;20381;-83
2022/06/26 01:59:23;;;;;;;51.10;36.67;;;;;;;;;;5329414;27;20020;-82
2022/06/26 02:01:54;;;;;;;47.43;36.23;;;;;;;;;;5330180;27;20278;-82
2022/06/26 02:04:25;;;;;;;46.55;35.90;;;;;;;;;;5333382;27;20095;-83
2022/06/26 02:06:56;;;;;;;47.40;34.50;;;;;;;;;;5304478;27;20481;-83
2022/06/26 02:15:11;;;;;;;46.00;35.30;;;;;;;;;;5316110;27;20033;-83
2022/06/26 02:17:43;;;;;;;46.30;35.80;;;;;;;;;;5315797;27;20048;-82
2022/06/26 02:20:14;;;;;;;51.33;36.80;;;;;;;;;;5338475;27;20368;-83
2022/06/26 02:22:45;;;;;;;42.03;33.35;;;;;;;;;;5300690;27;20293;-83
2022/06/26 02:25:16;;;;;;;44.47;34.88;;;;;;;;;;5316416;27;20045;-82
2022/06/26 02:27:48;;;;;;;43.47;33.80;;;;;;;;;;5319753;27;20174;-82
2022/06/26 02:30:19;;;;;;;45.13;32.72;;;;;;;;;;5288623;27;20267;-83
2022/06/26 02:32:50;;;;;;;46.65;33.28;;;;;;;;;;5313751;27;20090;-83
2022/06/26 02:35:26;;;;;;;40.17;30.15;;;;;;;;;;5293127;27;20032;-83
2022/06/26 02:37:57;;;;;;;45.60;32.53;;;;;;;;;;5307912;27;20067;-83
2022/06/26 02:40:29;;;;;;;34.80;27.60;;;;;;;;;;5309832;27;20055;-83
2022/06/26 02:43:01;;;;;;;39.25;28.85;;;;;;;;;;5310996;27;20043;-83
2022/06/26 02:45:32;;;;;;;35.70;26.33;;;;;;;;;;5312390;27;20029;-83
2022/06/26 02:48:03;;;;;;;38.13;26.63;;;;;;;;;;5312267;27;20309;-83
2022/06/26 02:50:35;;;;;;;35.67;24.90;;;;;;;;;;5311831;27;20567;-83
2022/06/26 02:53:06;;;;;;;39.83;26.20;;;;;;;;;;5322741;27;20139;-83
2022/06/26 02:55:37;;;;;;;38.38;24.77;;;;;;;;;;5317615;27;20369;-83
2022/06/26 02:58:09;;;;;;;39.53;24.75;;;;;;;;;;5323884;27;20028;-83
2022/06/26 03:00:40;;;;;;;34.83;23.90;;;;;;;;;;5307968;27;20513;-83
2022/06/26 03:03:11;;;;;;;34.55;25.23;;;;;;;;;;5287290;27;20036;-83
2022/06/26 03:05:42;;;;;;;39.37;26.70;;;;;;;;;;5316057;27;20036;-83
2022/06/26 03:08:13;;;;;;;39.58;25.85;;;;;;;;;;5307805;27;20113;-83
2022/06/26 03:10:45;;;;;;;35.57;24.83;;;;;;;;;;5309462;27;20043;-83
2022/06/26 03:13:16;;;;;;;39.97;26.50;;;;;;;;;;5313331;27;20036;-83
2022/06/26 03:15:47;;;;;;;34.33;24.80;;;;;;;;;;5290277;27;20444;-83
2022/06/26 03:18:18;;;;;;;36.90;26.73;;;;;;;;;;5296902;27;20930;-83
2022/06/26 03:20:50;;;;;;;33.85;25.67;;;;;;;;;;5291718;27;20705;-83
2022/06/26 03:24:00;;;;;;;39.17;26.15;;;;;;;;;;5291236;27;20074;-83
2022/06/26 03:26:12;;;;;;;31.92;24.58;;;;;;;;;;5304422;27;20119;-83
2022/06/26 03:28:43;;;;;;;37.80;25.17;;;;;;;;;;5311875;27;20099;-83
2022/06/26 03:31:14;;;;;;;35.75;24.58;;;;;;;;;;5326300;27;20309;-83
2022/06/26 03:33:46;;;;;;;40.10;25.10;;;;;;;;;;5310746;27;20028;-83
2022/06/26 03:36:17;;;;;;;33.78;23.55;;;;;;;;;;5307564;27;20035;-83
2022/06/26 03:38:49;;;;;;;31.10;22.65;;;;;;;;;;5305472;27;20408;-83
2022/06/26 03:41:20;;;;;;;31.80;23.15;;;;;;;;;;5313360;27;20032;-83
2022/06/26 03:43:52;;;;;;;32.40;22.23;;;;;;;;;;5321857;27;20031;-83
2022/06/26 03:46:23;;;;;;;29.10;21.70;;;;;;;;;;5290225;27;20036;-83
2022/06/26 03:48:54;;;;;;;33.67;23.47;;;;;;;;;;5308562;27;20024;-83
2022/06/26 03:51:26;;;;;;;40.95;23.48;;;;;;;;;;5315983;27;20762;-83
2022/06/26 03:53:57;;;;;;;32.33;22.80;;;;;;;;;;5310004;27;20028;-83
2022/06/26 03:56:31;;;;;;;37.07;23.20;;;;;;;;;;5295022;27;20027;-83
2022/06/26 03:59:02;;;;;;;36.53;22.23;;;;;;;;;;5312857;27;20364;-83
2022/06/26 04:01:34;;;;;;;34.70;22.15;;;;;;;;;;5317641;27;20043;-83
2022/06/26 04:04:05;;;;;;;31.20;20.27;;;;;;;;;;5310931;27;20023;-83
2022/06/26 04:06:36;;;;;;;28.37;18.67;;;;;;;;;;5294351;27;20119;-83
2022/06/26 04:09:07;;;;;;;28.38;18.90;;;;;;;;;;5312874;27;20393;-83
2022/06/26 04:11:39;;;;;;;31.42;18.38;;;;;;;;;;5309244;27;20297;-83
2022/06/26 04:14:10;;;;;;;30.17;19.43;;;;;;;;;;5309196;27;20441;-83
2022/06/26 04:16:41;;;;;;;27.60;18.03;;;;;;;;;;5305435;27;20247;-83
2022/06/26 04:19:12;;;;;;;30.77;18.13;;;;;;;;;;5310635;27;20254;-83
2022/06/26 04:21:43;;;;;;;26.37;17.50;;;;;;;;;;5284390;27;20283;-83
2022/06/26 04:24:14;;;;;;;27.77;18.75;;;;;;;;;;5287248;27;20270;-83
2022/06/26 04:26:46;;;;;;;27.17;18.50;;;;;;;;;;5302896;27;20028;-83
2022/06/26 04:29:17;;;;;;;31.02;19.02;;;;;;;;;;5306122;27;20056;-83
2022/06/26 04:31:48;;;;;;;28.45;18.02;;;;;;;;;;5317140;27;20036;-83
2022/06/26 04:34:19;;;;;;;31.33;19.05;;;;;;;;;;5299112;27;20025;-83
2022/06/26 04:36:50;;;;;;;23.53;17.53;;;;;;;;;;5286893;27;20077;-83
2022/06/26 04:39:22;;;;;;;25.70;18.47;;;;;;;;;;5315295;27;20247;-83
2022/06/26 04:41:53;;;;;;;31.52;19.45;;;;;;;;;;5317708;27;20286;-83
2022/06/26 04:44:25;;;;;;;25.63;16.73;;;;;;;;;;5313383;27;20009;-82
2022/06/26 04:46:56;;;;;;;24.30;18.65;;;;;;;;;;5330600;27;20405;-83
2022/06/26 04:49:27;;;;;;;25.47;17.87;;;;;;;;;;5313803;27;20053;-83
2022/06/26 04:51:58;;;;;;;28.97;18.30;;;;;;;;;;5299504;27;20809;-83
2022/06/26 04:54:29;;;;;;;26.88;17.40;;;;;;;;;;5296782;27;20407;-83
2022/06/26 04:57:01;;;;;;;21.40;16.50;;;;;;;;;;5293333;27;21653;-83
2022/06/26 04:59:32;;;;;;;25.48;17.08;;;;;;;;;;5309414;27;20385;-82
2022/06/26 05:02:04;;;;;;;27.03;16.33;;;;;;;;;;5288848;27;20118;-83
2022/06/26 05:04:35;;;;;;;21.55;15.43;;;;;;;;;;5288341;27;20275;-83
2022/06/26 05:07:06;;;;;;;27.23;17.02;;;;;;;;;;5311372;27;20411;-82
2022/06/26 05:09:37;;;;;;;23.57;14.87;;;;;;;;;;5288466;27;20220;-83
2022/06/26 05:12:09;;;;;;;21.43;14.77;;;;;;;;;;5309216;27;20278;-83
2022/06/26 05:14:40;;;;;;;28.20;16.40;;;;;;;;;;5292625;27;20382;-83
2022/06/26 05:17:11;;;;;;;21.00;14.23;;;;;;;;;;5290408;27;20120;-83
2022/06/26 05:19:42;;;;;;;26.50;14.90;;;;;;;;;;5290752;27;20342;-83
2022/06/26 05:22:14;;;;;;;27.05;15.52;;;;;;;;;;5299087;27;20020;-83
2022/06/26 05:24:45;;;;;;;23.17;14.65;;;;;;;;;;5312140;27;20040;-83
2022/06/26 05:27:16;;;;;;;28.23;15.38;;;;;;;;;;5313333;27;20024;-83
2022/06/26 05:29:48;;;;;;;23.80;14.23;;;;;;;;;;5312777;27;20031;-83
2022/06/26 05:32:19;;;;;;;23.65;15.13;;;;;;;;;;5291094;27;20016;-83
2022/06/26 05:34:50;;;;;;;26.47;14.40;;;;;;;;;;5313962;27;20029;-82
2022/06/26 05:37:21;;;;;;;23.43;13.33;;;;;;;;;;5298992;27;20286;-83
2022/06/26 05:39:53;;;;;;;21.67;12.82;;;;;;;;;;5310719;27;20270;-83
2022/06/26 05:42:24;;;;;;;17.07;11.20;;;;;;;;;;5314527;27;20155;-83
2022/06/26 05:44:55;;;;;;;16.50;11.27;;;;;;;;;;5293450;27;20304;-83
2022/06/26 05:47:26;;;;;;;16.30;11.30;;;;;;;;;;5313410;27;20039;-83
2022/06/26 05:49:57;;;;;;;18.23;10.97;;;;;;;;;;5315048;27;20044;-83
2022/06/26 05:52:29;;;;;;;14.20;10.30;;;;;;;;;;5297413;27;20263;-83
2022/06/26 05:55:00;;;;;;;14.40;9.90;;;;;;;;;;5296028;27;20033;-83
2022/06/26 05:57:31;;;;;;;14.60;9.60;;;;;;;;;;5310551;27;20278;-83
2022/06/26 06:00:03;;;;;;;14.77;10.03;;;;;;;;;;5316424;27;20285;-83
2022/06/26 06:02:34;;;;;;;14.95;9.63;;;;;;;;;;5315549;27;20270;-82
2022/06/26 06:05:06;;;;;;;10.63;8.05;;;;;;;;;;5290750;28;20500;-83
2022/06/26 06:07:40;;;;;;;13.13;8.15;;;;;;;;;;5298439;28;20038;-82
2022/06/26 06:10:12;;;;;;;13.93;8.32;;;;;;;;;;5289853;27;20031;-82
2022/06/26 06:12:43;;;;;;;14.27;8.50;;;;;;;;;;5307714;27;20477;-82
2022/06/26 06:15:14;;;;;;;14.30;7.43;;;;;;;;;;5295492;27;20300;-82
2022/06/26 06:17:46;;;;;;;11.70;6.85;;;;;;;;;;5314764;27;20031;-83
2022/06/26 06:20:18;;;;;;;10.43;7.53;;;;;;;;;;5313113;27;20037;-83
2022/06/26 06:22:54;;;;;;;10.15;6.93;;;;;;;;;;5291190;28;20055;-82
2022/06/26 06:25:25;;;;;;;9.00;6.72;;;;;;;;;;5298176;28;20155;-82
2022/06/26 06:27:56;;;;;;;10.50;7.07;;;;;;;;;;5315753;27;20115;-82
2022/06/26 06:30:28;;;;;;;8.23;5.90;;;;;;;;;;5295570;27;20028;-82
2022/06/26 06:32:59;;;;;;;10.23;6.22;;;;;;;;;;5313444;27;20032;-82
2022/06/26 06:35:30;;;;;;;10.20;6.07;;;;;;;;;;5326818;27;20151;-82
2022/06/26 06:38:02;;;;;;;8.90;5.63;;;;;;;;;;5315210;27;20025;-82
2022/06/26 06:40:33;;;;;;;9.90;6.45;;;;;;;;;;5312911;27;20025;-82
2022/06/26 06:43:08;;;;;;;8.70;6.28;;;;;;;;;;5319343;27;20052;-82
2022/06/26 06:45:40;;;;;;;8.02;5.93;;;;;;;;;;5308586;27;20508;-82
2022/06/26 06:48:11;;;;;;;10.25;5.85;;;;;;;;;;5294332;28;20051;-82
2022/06/26 06:50:42;;;;;;;9.27;6.30;;;;;;;;;;5309269;27;20043;-82
2022/06/26 06:53:13;;;;;;;9.85;6.15;;;;;;;;;;5325550;27;20112;-82
2022/06/26 06:55:45;;;;;;;10.73;6.10;;;;;;;;;;5325825;28;20032;-82
2022/06/26 06:58:16;;;;;;;8.63;6.38;;;;;;;;;;5305440;28;20024;-83
2022/06/26 07:00:47;;;;;;;10.23;6.60;;;;;;;;;;5317250;28;20028;-82
2022/06/26 07:03:18;;;;;;;9.23;6.03;;;;;;;;;;5337077;27;20412;-82
2022/06/26 07:05:49;;;;;;;12.10;5.72;;;;;;;;;;5322563;28;20078;-82
2022/06/26 07:08:21;;;;;;;9.23;5.72;;;;;;;;;;5316940;27;20020;-82
2022/06/26 07:10:52;;;;;;;6.90;5.50;;;;;;;;;;5313502;28;20046;-82
2022/06/26 07:13:23;;;;;;;6.03;5.40;;;;;;;;;;5293965;28;20271;-82
2022/06/26 07:15:54;;;;;;;9.03;6.30;;;;;;;;;;5316677;28;20395;-82
2022/06/26 07:18:25;;;;;;;9.87;5.83;;;;;;;;;;5320491;27;20110;-82
2022/06/26 07:20:57;;;;;;;9.20;5.57;;;;;;;;;;5318131;28;20322;-82
2022/06/26 07:23:28;;;;;;;8.37;5.30;;;;;;;;;;5319606;28;20020;-82
2022/06/26 07:25:59;;;;;;;10.57;6.30;;;;;;;;;;5307581;28;20032;-81
2022/06/26 07:28:30;;;;;;;10.07;5.47;;;;;;;;;;5317904;28;20286;-81
2022/06/26 07:31:01;;;;;;;7.35;4.82;;;;;;;;;;5314015;28;20025;-81
2022/06/26 07:36:22;;;;;;;7.28;5.65;;;;;;;;;;5335687;28;20025;-82
2022/06/26 07:38:54;;;;;;;7.53;5.07;;;;;;;;;;5314738;28;20071;-82
2022/06/26 07:41:25;;;;;;;9.20;5.35;;;;;;;;;;5289401;28;21062;-82
2022/06/26 07:43:57;;;;;;;5.45;4.03;;;;;;;;;;5288056;28;20051;-82
2022/06/26 07:46:28;;;;;;;8.17;4.43;;;;;;;;;;5304650;27;20032;-82
2022/06/26 07:48:59;;;;;;;8.05;4.25;;;;;;;;;;5289586;28;20701;-82
2022/06/26 07:51:31;;;;;;;7.30;4.57;;;;;;;;;;5325865;27;20066;-82
2022/06/26 07:54:02;;;;;;;5.03;4.32;;;;;;;;;;5314471;28;20060;-82
2022/06/26 07:56:33;;;;;;;5.72;4.63;;;;;;;;;;5307261;28;20066;-83
2022/06/26 07:59:05;;;;;;;7.90;4.90;;;;;;;;;;5305301;28;20101;-82
2022/06/26 08:01:36;;;;;;;7.95;4.75;;;;;;;;;;5290855;28;20313;-82
2022/06/26 08:04:08;;;;;;;8.38;4.40;;;;;;;;;;5322641;28;20354;-83
2022/06/26 08:06:39;;;;;;;7.13;4.97;;;;;;;;;;5309585;28;20434;-82
2022/06/26 08:09:10;;;;;;;4.75;4.35;;;;;;;;;;5316424;28;20017;-82
2022/06/26 08:11:45;;;;;;;8.18;4.68;;;;;;;;;;5316304;28;20037;-81
2022/06/26 08:14:16;;;;;;;9.10;4.75;;;;;;;;;;5309901;28;20031;-82
2022/06/26 08:16:47;;;;;;;7.30;4.88;;;;;;;;;;5308479;27;20033;-82
2022/06/26 08:19:18;;;;;;;7.63;4.80;;;;;;;;;;5310840;27;20035;-82
2022/06/26 08:22:02;;;;;;;8.47;4.30;;;;;;;;;;5313256;28;20201;-82
2022/06/26 08:24:33;;;;;;;6.45;4.93;;;;;;;;;;5324913;27;20037;-82
2022/06/26 08:27:04;;;;;;;6.82;5.13;;;;;;;;;;5313077;28;20169;-82
2022/06/26 08:29:37;;;;;;;9.50;4.07;;;;;;;;;;5322411;27;20140;-82
2022/06/26 08:32:08;;;;;;;7.65;5.43;;;;;;;;;;5319142;28;20588;-82
2022/06/26 08:34:41;;;;;;;8.80;3.80;;;;;;;;;;5310729;28;20401;-82
2022/06/26 08:37:12;;;;;;;6.30;4.22;;;;;;;;;;5324882;28;20697;-82
2022/06/26 08:39:43;;;;;;;6.93;4.70;;;;;;;;;;5292956;27;20017;-82
2022/06/26 08:42:15;;;;;;;9.73;4.22;;;;;;;;;;5333195;27;20035;-82
2022/06/26 08:44:46;;;;;;;5.28;4.20;;;;;;;;;;5297447;28;20116;-82
2022/06/26 08:47:19;;;;;;;4.60;3.93;;;;;;;;;;5303267;28;20033;-82
2022/06/26 08:49:54;;;;;;;5.28;4.13;;;;;;;;;;5287520;28;20409;-82
2022/06/26 08:52:29;;;;;;;4.93;4.28;;;;;;;;;;5288715;28;20031;-82
2022/06/26 08:55:01;;;;;;;6.43;3.92;;;;;;;;;;5316705;27;20066;-82
2022/06/26 08:57:33;;;;;;;7.55;4.05;;;;;;;;;;5296964;28;20053;-82
2022/06/26 09:00:05;;;;;;;5.70;3.67;;;;;;;;;;5304826;28;20029;-82
2022/06/26 09:02:36;;;;;;;6.95;3.40;;;;;;;;;;5316680;28;20413;-82
2022/06/26 09:05:08;;;;;;;5.00;2.87;;;;;;;;;;5327697;28;20036;-82
2022/06/26 09:07:45;;;;;;;6.20;3.53;;;;;;;;;;5309628;28;20346;-82
2022/06/26 09:10:17;;;;;;;4.03;3.40;;;;;;;;;;5324770;27;20444;-82
2022/06/26 09:12:52;;;;;;;4.78;3.33;;;;;;;;;;5328219;28;20036;-82
2022/06/26 09:15:24;;;;;;;6.68;3.25;;;;;;;;;;5308234;28;20028;-82
2022/06/26 09:18:00;;;;;;;5.03;2.75;;;;;;;;;;5310835;28;20094;-82
2022/06/26 09:20:33;;;;;;;5.53;2.90;;;;;;;;;;5286981;28;20032;-82
2022/06/26 09:23:06;;;;;;;3.92;2.70;;;;;;;;;;5287826;28;20446;-82
2022/06/26 09:25:37;;;;;;;4.40;2.63;;;;;;;;;;5308822;27;20036;-83
2022/06/26 09:28:13;;;;;;;4.50;2.83;;;;;;;;;;5322904;27;20380;-82
2022/06/26 09:30:56;;;;;;;3.90;2.78;;;;;;;;;;5306014;28;20254;-82
2022/06/26 09:33:28;;;;;;;4.57;2.78;;;;;;;;;;5315320;27;20062;-82
2022/06/26 09:36:00;;;;;;;7.43;3.10;;;;;;;;;;5294875;28;20473;-82
2022/06/26 09:38:33;;;;;;;6.05;2.92;;;;;;;;;;5320579;28;20640;-82
2022/06/26 09:41:05;;;;;;;6.63;3.28;;;;;;;;;;5298353;28;20185;-82
2022/06/26 09:43:37;;;;;;;5.30;2.60;;;;;;;;;;5313080;27;20300;-82
2022/06/26 09:46:10;;;;;;;3.05;2.50;;;;;;;;;;5315774;27;20122;-82
2022/06/26 09:48:42;;;;;;;6.22;2.17;;;;;;;;;;5315349;28;20054;-82
2022/06/26 09:51:13;;;;;;;5.10;2.28;;;;;;;;;;5316988;27;20054;-82
2022/06/26 09:53:45;;;;;;;4.63;2.47;;;;;;;;;;5291846;28;20024;-82
2022/06/26 09:56:16;;;;;;;3.17;2.50;;;;;;;;;;5297989;28;20040;-82
2022/06/26 09:58:50;;;;;;;3.78;2.15;;;;;;;;;;5316406;27;20082;-82
2022/06/26 10:07:02;;;;;;;4.78;2.63;;;;;;;;;;5323498;28;20435;-82
2022/06/26 10:09:34;;;;;;;4.63;2.20;;;;;;;;;;5300646;28;20082;-82
2022/06/26 10:12:06;;;;;;;3.90;2.40;;;;;;;;;;5307815;28;20162;-82
2022/06/26 10:14:41;;;;;;;4.90;3.05;;;;;;;;;;5324677;27;20032;-82
2022/06/26 10:17:35;;;;;;;5.75;2.35;;;;;;;;;;5310228;27;20055;-82
2022/06/26 10:20:08;;;;;;;6.20;2.97;;;;;;;;;;5326053;27;20048;-80
2022/06/26 10:22:40;;;;;;;5.97;2.88;;;;;;;;;;5314122;27;20020;-82
2022/06/26 10:25:26;;;;;;;5.13;2.33;;;;;;;;;;5336899;27;20375;-82
2022/06/26 10:27:58;;;;;;;4.25;2.22;;;;;;;;;;5298435;28;20017;-82
2022/06/26 10:30:30;;;;;;;3.95;2.63;;;;;;;;;;5342924;27;20388;-83
2022/06/26 10:33:10;;;;;;;5.40;2.60;;;;;;;;;;5332181;27;20119;-82
2022/06/26 10:35:45;;;;;;;4.43;2.22;;;;;;;;;;5299666;28;20047;-83
2022/06/26 10:38:21;;;;;;;5.78;2.40;;;;;;;;;;5305107;27;20104;-83
2022/06/26 10:44:13;;;;;;;9.80;3.10;;;;;;;;;;5304712;28;20499;-82
2022/06/26 10:46:45;;;;;;;4.32;2.53;;;;;;;;;;5305508;28;20059;-83
2022/06/26 10:49:16;;;;;;;7.70;2.60;;;;;;;;;;5303322;27;20047;-83
2022/06/26 10:51:47;;;;;;;5.23;3.10;;;;;;;;;;5310627;27;20472;-82
2022/06/26 10:54:29;;;;;;;4.43;2.57;;;;;;;;;;5286070;28;20269;-83
2022/06/26 10:57:17;;;;;;;8.60;2.33;;;;;;;;;;5287586;27;20282;-83
2022/06/26 10:59:48;;;;;;;5.20;2.20;;;;;;;;;;5328503;27;20020;-82
2022/06/26 11:02:20;;;;;;;3.70;2.33;;;;;;;;;;5325920;27;20039;-83
2022/06/26 11:04:51;;;;;;;6.45;2.30;;;;;;;;;;5325607;28;20396;-83
2022/06/26 11:07:22;;;;;;;3.50;1.73;;;;;;;;;;5307062;28;20051;-82
2022/06/26 11:09:56;;;;;;;3.83;2.10;;;;;;;;;;5311972;27;20704;-82
2022/06/26 11:12:38;;;;;;;7.55;2.22;;;;;;;;;;5308400;27;20020;-82
2022/06/26 11:15:21;;;;;;;7.45;2.42;;;;;;;;;;5301800;28;20034;-83
2022/06/26 11:17:57;;;;;;;6.80;2.47;;;;;;;;;;5308150;28;20052;-82
2022/06/26 11:21:12;;;;;;;6.68;2.40;;;;;;;;;;5294206;28;20029;-82
2022/06/26 11:23:38;;;;;;;3.33;1.80;;;;;;;;;;5303368;27;20036;-83
2022/06/26 11:26:11;;;;;;;8.93;2.20;;;;;;;;;;5323730;27;20154;-82
2022/06/26 11:28:43;;;;;;;4.75;1.90;;;;;;;;;;5318856;28;20028;-82
2022/06/26 11:31:19;;;;;;;3.30;1.90;;;;;;;;;;5340742;27;20023;-82
2022/06/26 11:33:50;;;;;;;;;;;;;;;;;;5339623;27;20028;-83
2022/06/26 11:36:24;;;;;;;5.32;2.00;;;;;;;;;;5304110;27;19962;-82
2022/06/26 11:38:55;;;;;;;4.95;2.50;;;;;;;;;;5303046;28;20029;-82
2022/06/26 11:41:27;;;;;;;8.15;2.47;;;;;;;;;;5303219;27;20083;-83
2022/06/26 11:43:58;;;;;;;6.03;2.20;;;;;;;;;;5284243;28;20082;-82
2022/06/26 11:46:29;;;;;;;5.00;2.10;;;;;;;;;;5304983;28;20449;-83
2022/06/26 11:49:00;;;;;;;5.20;2.05;;;;;;;;;;5319301;27;20404;-82
2022/06/26 11:51:32;;;;;;;4.25;2.05;;;;;;;;;;5303643;28;20053;-82
2022/06/26 11:54:03;;;;;;;6.05;2.13;;;;;;;;;;5303511;28;20028;-82
2022/06/26 11:56:35;;;;;;;4.05;2.17;;;;;;;;;;5318607;28;20081;-82
2022/06/26 11:59:06;;;;;;;4.67;2.30;;;;;;;;;;5314589;27;20077;-82
2022/06/26 12:01:37;;;;;;;4.87;2.10;;;;;;;;;;5340037;27;20323;-82
2022/06/26 12:04:08;;;;;;;4.38;1.90;;;;;;;;;;5323348;27;20020;-83
2022/06/26 12:06:40;;;;;;;4.63;2.43;;;;;;;;;;5324336;28;20032;-82
2022/06/26 12:09:19;;;;;;;6.85;2.33;;;;;;;;;;5305312;28;20274;-82
2022/06/26 12:11:52;;;;;;;5.80;2.17;;;;;;;;;;5325122;28;20032;-82
2022/06/26 12:14:24;;;;;;;10.52;2.10;;;;;;;;;;5323270;27;20031;-82
2022/06/26 12:16:57;;;;;;;7.28;2.03;;;;;;;;;;5305546;28;20131;-82
2022/06/26 12:19:36;;;;;;;5.82;1.80;;;;;;;;;;5304756;27;20032;-82
2022/06/26 12:22:07;;;;;;;8.45;2.40;;;;;;;;;;5294993;27;20032;-81
2022/06/26 12:24:49;;;;;;;5.05;2.10;;;;;;;;;;5313870;28;20039;-82
2022/06/26 12:27:20;;;;;;;6.50;2.20;;;;;;;;;;5309424;27;20029;-82
2022/06/26 12:29:51;;;;;;;6.43;2.75;;;;;;;;;;5309544;28;20021;-82
2022/06/26 12:32:22;;;;;;;5.67;2.30;;;;;;;;;;5308832;27;20429;-82
2022/06/26 12:34:53;;;;;;;6.00;2.37;;;;;;;;;;5308916;28;20108;-83
2022/06/26 12:37:25;;;;;;;5.57;2.10;;;;;;;;;;5301165;28;20728;-82
2022/06/26 12:39:56;;;;;;;4.27;2.07;;;;;;;;;;5309838;27;20384;-83
2022/06/26 12:42:27;;;;;;;4.10;1.97;;;;;;;;;;5317528;27;20036;-83
2022/06/26 12:44:58;;;;;;;6.33;2.20;;;;;;;;;;5287389;28;20615;-82
2022/06/26 12:47:31;;;;;;;6.43;1.90;;;;;;;;;;5287989;28;20268;-82
2022/06/26 12:50:03;;;;;;;7.15;2.15;;;;;;;;;;5306309;28;20087;-83
2022/06/26 12:52:35;;;;;;;6.07;2.30;;;;;;;;;;5305975;28;20036;-83
2022/06/26 12:55:07;;;;;;;4.50;1.92;;;;;;;;;;5305668;27;20032;-83
2022/06/26 12:57:38;;;;;;;6.45;2.08;;;;;;;;;;5294983;28;20054;-83
2022/06/26 13:00:10;;;;;;;7.23;2.53;;;;;;;;;;5326756;28;20028;-83
2022/06/26 13:02:41;;;;;;;5.53;2.40;;;;;;;;;;5312338;28;20275;-81
2022/06/26 13:05:12;;;;;;;4.17;2.53;;;;;;;;;;5316218;28;20394;-82
2022/06/26 13:07:44;;;;;;;4.43;2.30;;;;;;;;;;5303537;28;20032;-82
2022/06/26 13:10:15;;;;;;;5.10;2.22;;;;;;;;;;5354046;27;20020;-82
2022/06/26 13:12:47;;;;;;;7.77;2.47;;;;;;;;;;5339766;27;20032;-82
2022/06/26 13:15:19;;;;;;;4.60;1.92;;;;;;;;;;5290722;28;20279;-82
2022/06/26 13:17:50;;;;;;;6.50;2.05;;;;;;;;;;5325701;27;20071;-83
2022/06/26 13:20:21;;;;;;;3.53;1.90;;;;;;;;;;5315568;27;20104;-83
2022/06/26 13:22:53;;;;;;;4.47;1.95;;;;;;;;;;5317034;27;20024;-83
2022/06/26 13:25:24;;;;;;;7.30;2.67;;;;;;;;;;5302520;28;20040;-83
2022/06/26 13:27:55;;;;;;;5.20;2.43;;;;;;;;;;5325453;28;20270;-83
2022/06/26 13:30:26;;;;;;;5.78;2.20;;;;;;;;;;5306419;28;20293;-83
2022/06/26 13:32:58;;;;;;;3.27;2.00;;;;;;;;;;5325829;27;20107;-83
2022/06/26 13:35:29;;;;;;;4.30;1.97;;;;;;;;;;5326169;27;20017;-82
2022/06/26 13:38:00;;;;;;;3.70;2.23;;;;;;;;;;5342758;27;20326;-83
2022/06/26 13:40:31;;;;;;;5.35;1.80;;;;;;;;;;5342858;27;20650;-82
2022/06/26 13:43:02;;;;;;;4.40;1.70;;;;;;;;;;5308411;28;20024;-83
2022/06/26 13:45:34;;;;;;;7.70;2.17;;;;;;;;;;5309421;27;20841;-83
2022/06/26 13:48:05;;;;;;;4.78;1.55;;;;;;;;;;5326945;27;20069;-83
2022/06/26 13:50:36;;;;;;;4.38;1.58;;;;;;;;;;5308055;28;20048;-82
2022/06/26 13:53:08;;;;;;;4.23;1.73;;;;;;;;;;5342874;27;20468;-83
2022/06/26 13:55:39;;;;;;;3.20;1.35;;;;;;;;;;5308466;28;20267;-83
2022/06/26 13:58:10;;;;;;;4.68;2.00;;;;;;;;;;5308488;28;20034;-83
2022/06/26 14:00:41;;;;;;;4.83;1.60;;;;;;;;;;5338155;27;20036;-83
2022/06/26 14:03:13;;;;;;;4.03;1.50;;;;;;;;;;5288071;28;20639;-82
2022/06/26 14:05:44;;;;;;;2.88;1.40;;;;;;;;;;5305580;28;20283;-83
2022/06/26 14:08:15;;;;;;;3.43;1.50;;;;;;;;;;5323320;27;20024;-83
2022/06/26 14:10:47;;;;;;;4.83;1.50;;;;;;;;;;5308011;27;20040;-82
2022/06/26 14:13:18;;;;;;;6.20;1.87;;;;;;;;;;5332233;28;20040;-82
2022/06/26 14:15:49;;;;;;;3.47;1.50;;;;;;;;;;5337023;27;20091;-83
2022/06/26 14:18:20;;;;;;;3.80;1.63;;;;;;;;;;5350774;27;20015;-82
2022/06/26 14:20:52;;;;;;;4.57;1.60;;;;;;;;;;5340002;27;20028;-82
2022/06/26 14:26:16;;;;;;;4.03;1.83;;;;;;;;;;5329788;28;20035;-82
2022/06/26 14:28:48;;;;;;;3.53;1.58;;;;;;;;;;5325489;27;20026;-82
2022/06/26 14:31:19;;;;;;;6.85;2.65;;;;;;;;;;5309682;28;20028;-83
2022/06/26 14:33:50;;;;;;;5.72;1.85;;;;;;;;;;5312362;27;20075;-83
2022/06/26 14:36:22;;;;;;;3.80;1.80;;;;;;;;;;5310613;27;20089;-82
2022/06/26 14:38:53;;;;;;;4.88;2.05;;;;;;;;;;5293234;28;20084;-83
2022/06/26 14:41:24;;;;;;;8.30;2.53;;;;;;;;;;5288673;28;20527;-79
2022/06/26 14:43:56;;;;;;;3.80;1.87;;;;;;;;;;5305351;28;20032;-82
2022/06/26 14:46:27;;;;;;;4.25;1.80;;;;;;;;;;5326310;28;20270;-82
2022/06/26 14:48:58;;;;;;;5.53;2.00;;;;;;;;;;5323576;27;20077;-82
2022/06/26 14:51:31;;;;;;;6.33;2.43;;;;;;;;;;5328726;27;20477;-83
2022/06/26 14:54:02;;;;;;;4.88;1.60;;;;;;;;;;5335327;28;20086;-82
2022/06/26 14:56:33;;;;;;;5.25;2.05;;;;;;;;;;5337034;28;20027;-82
2022/06/26 14:59:04;;;;;;;9.43;2.10;;;;;;;;;;5312698;28;20032;-82
2022/06/26 15:01:36;;;;;;;5.43;1.93;;;;;;;;;;5306438;28;20781;-82
2022/06/26 15:04:07;;;;;;;5.47;2.60;;;;;;;;;;5321975;27;20259;-83
2022/06/26 15:06:38;;;;;;;5.73;2.00;;;;;;;;;;5324383;27;20028;-82
2022/06/26 15:09:09;;;;;;;4.47;1.42;;;;;;;;;;5302987;28;20024;-83
2022/06/26 15:11:41;;;;;;;3.75;1.80;;;;;;;;;;5286720;28;20056;-83
2022/06/26 15:14:12;;;;;;;4.55;1.80;;;;;;;;;;5302926;28;20078;-83
2022/06/26 15:16:48;;;;;;;5.97;2.60;;;;;;;;;;5325584;28;20119;-82
2022/06/26 15:19:20;;;;;;;5.18;1.77;;;;;;;;;;5319621;27;20032;-82
2022/06/26 15:21:51;;;;;;;6.32;1.60;;;;;;;;;;5304644;27;20021;-82